sensor_id;sensor_type;location;lat;lon;timestamp;P1;durP1;ratioP1;P2;durP2;ratioP2
52764;SDS011;38650;44.536;18.664;2023-12-07T00:01:14;20.95;;;16.23;;
52764;SDS011;38650;44.536;18.664;2023-12-07T00:03:39;18.42;;;14.88;;
52764;SDS011;38650;44.536;18.664;2023-12-07T00:06:05;19.63;;;14.85;;
52764;SDS011;38650;44.536;18.664;2023-12-07T00:08:31;18.63;;;14.05;;
52764;SDS011;38650;44.536;18.664;2023-12-07T00:10:57;19.48;;;16.10;;
52764;SDS011;38650;44.536;18.664;2023-12-07T00:13:22;19.40;;;14.95;;
52764;SDS011;38650;44.536;18.664;2023-12-07T00:15:48;16.35;;;12.65;;
52764;SDS011;38650;44.536;18.664;2023-12-07T00:18:14;19.45;;;14.23;;
52764;SDS011;38650;44.536;18.664;2023-12-07T00:20:39;15.98;;;12.85;;
52764;SDS011;38650;44.536;18.664;2023-12-07T00:23:05;21.95;;;16.25;;
52764;SDS011;38650;44.536;18.664;2023-12-07T00:25:31;20.67;;;15.73;;
52764;SDS011;38650;44.536;18.664;2023-12-07T00:27:56;24.55;;;19.08;;
52764;SDS011;38650;44.536;18.664;2023-12-07T00:30:22;28.45;;;21.13;;
52764;SDS011;38650;44.536;18.664;2023-12-07T00:32:48;26.10;;;18.75;;
52764;SDS011;38650;44.536;18.664;2023-12-07T00:35:14;21.25;;;16.08;;
52764;SDS011;38650;44.536;18.664;2023-12-07T00:37:41;20.40;;;15.48;;
52764;SDS011;38650;44.536;18.664;2023-12-07T00:40:07;17.45;;;13.30;;
52764;SDS011;38650;44.536;18.664;2023-12-07T00:42:33;15.05;;;12.73;;
52764;SDS011;38650;44.536;18.664;2023-12-07T00:45:01;17.88;;;13.98;;
52764;SDS011;38650;44.536;18.664;2023-12-07T00:47:27;15.52;;;12.32;;
52764;SDS011;38650;44.536;18.664;2023-12-07T00:49:53;13.80;;;11.63;;
52764;SDS011;38650;44.536;18.664;2023-12-07T00:52:18;12.90;;;10.32;;
52764;SDS011;38650;44.536;18.664;2023-12-07T00:54:44;14.10;;;11.32;;
52764;SDS011;38650;44.536;18.664;2023-12-07T00:57:10;13.20;;;10.32;;
52764;SDS011;38650;44.536;18.664;2023-12-07T00:59:35;16.52;;;12.07;;
52764;SDS011;38650;44.536;18.664;2023-12-07T01:02:05;20.80;;;13.80;;
52764;SDS011;38650;44.536;18.664;2023-12-07T01:04:31;19.90;;;14.63;;
52764;SDS011;38650;44.536;18.664;2023-12-07T01:06:57;17.70;;;13.90;;
52764;SDS011;38650;44.536;18.664;2023-12-07T01:09:24;18.33;;;14.27;;
52764;SDS011;38650;44.536;18.664;2023-12-07T01:11:50;18.90;;;13.88;;
52764;SDS011;38650;44.536;18.664;2023-12-07T01:14:16;17.02;;;13.18;;
52764;SDS011;38650;44.536;18.664;2023-12-07T01:16:42;16.83;;;12.98;;
52764;SDS011;38650;44.536;18.664;2023-12-07T01:19:09;18.33;;;13.82;;
52764;SDS011;38650;44.536;18.664;2023-12-07T01:21:35;21.67;;;15.52;;
52764;SDS011;38650;44.536;18.664;2023-12-07T01:24:00;18.00;;;13.70;;
52764;SDS011;38650;44.536;18.664;2023-12-07T01:26:26;17.65;;;13.63;;
52764;SDS011;38650;44.536;18.664;2023-12-07T01:28:52;16.73;;;13.32;;
52764;SDS011;38650;44.536;18.664;2023-12-07T01:31:17;16.70;;;13.15;;
52764;SDS011;38650;44.536;18.664;2023-12-07T01:33:43;12.65;;;10.30;;
52764;SDS011;38650;44.536;18.664;2023-12-07T01:36:10;17.02;;;12.20;;
52764;SDS011;38650;44.536;18.664;2023-12-07T01:38:36;17.15;;;12.90;;
52764;SDS011;38650;44.536;18.664;2023-12-07T01:41:02;15.63;;;12.73;;
52764;SDS011;38650;44.536;18.664;2023-12-07T01:43:27;17.05;;;11.43;;
52764;SDS011;38650;44.536;18.664;2023-12-07T01:45:54;12.00;;;9.35;;
52764;SDS011;38650;44.536;18.664;2023-12-07T01:48:22;11.75;;;8.57;;
52764;SDS011;38650;44.536;18.664;2023-12-07T01:50:50;9.95;;;8.80;;
52764;SDS011;38650;44.536;18.664;2023-12-07T01:53:16;13.23;;;10.57;;
52764;SDS011;38650;44.536;18.664;2023-12-07T01:55:42;13.20;;;11.15;;
52764;SDS011;38650;44.536;18.664;2023-12-07T01:58:08;13.20;;;10.73;;
52764;SDS011;38650;44.536;18.664;2023-12-07T02:00:35;11.82;;;9.35;;
52764;SDS011;38650;44.536;18.664;2023-12-07T02:03:02;14.00;;;10.30;;
52764;SDS011;38650;44.536;18.664;2023-12-07T02:05:30;12.45;;;10.82;;
52764;SDS011;38650;44.536;18.664;2023-12-07T02:07:58;11.02;;;9.35;;
52764;SDS011;38650;44.536;18.664;2023-12-07T02:10:24;12.77;;;9.50;;
52764;SDS011;38650;44.536;18.664;2023-12-07T02:12:50;10.85;;;8.88;;
52764;SDS011;38650;44.536;18.664;2023-12-07T02:15:18;12.18;;;9.32;;
52764;SDS011;38650;44.536;18.664;2023-12-07T02:20:53;13.60;;;11.32;;
52764;SDS011;38650;44.536;18.664;2023-12-07T02:23:26;15.15;;;11.23;;
52764;SDS011;38650;44.536;18.664;2023-12-07T02:25:54;12.93;;;10.32;;
52764;SDS011;38650;44.536;18.664;2023-12-07T02:28:22;14.73;;;11.68;;
52764;SDS011;38650;44.536;18.664;2023-12-07T02:30:48;14.90;;;12.57;;
52764;SDS011;38650;44.536;18.664;2023-12-07T02:33:13;14.48;;;12.07;;
52764;SDS011;38650;44.536;18.664;2023-12-07T02:35:40;16.15;;;11.82;;
52764;SDS011;38650;44.536;18.664;2023-12-07T02:38:07;12.15;;;9.85;;
52764;SDS011;38650;44.536;18.664;2023-12-07T02:40:33;11.80;;;10.18;;
52764;SDS011;38650;44.536;18.664;2023-12-07T02:43:00;12.43;;;10.50;;
52764;SDS011;38650;44.536;18.664;2023-12-07T02:45:28;12.05;;;10.40;;
52764;SDS011;38650;44.536;18.664;2023-12-07T02:47:54;13.32;;;9.52;;
52764;SDS011;38650;44.536;18.664;2023-12-07T02:50:19;9.38;;;8.38;;
52764;SDS011;38650;44.536;18.664;2023-12-07T02:52:45;11.05;;;8.02;;
52764;SDS011;38650;44.536;18.664;2023-12-07T02:55:11;10.35;;;8.25;;
52764;SDS011;38650;44.536;18.664;2023-12-07T02:57:37;9.23;;;7.63;;
52764;SDS011;38650;44.536;18.664;2023-12-07T03:00:03;9.55;;;7.03;;
52764;SDS011;38650;44.536;18.664;2023-12-07T03:02:36;9.68;;;6.82;;
52764;SDS011;38650;44.536;18.664;2023-12-07T03:05:03;9.80;;;7.25;;
52764;SDS011;38650;44.536;18.664;2023-12-07T03:07:29;9.45;;;7.68;;
52764;SDS011;38650;44.536;18.664;2023-12-07T03:09:55;10.25;;;8.30;;
52764;SDS011;38650;44.536;18.664;2023-12-07T03:12:21;9.70;;;7.43;;
52764;SDS011;38650;44.536;18.664;2023-12-07T03:14:48;9.95;;;7.75;;
52764;SDS011;38650;44.536;18.664;2023-12-07T03:17:14;10.85;;;8.65;;
52764;SDS011;38650;44.536;18.664;2023-12-07T03:19:40;9.55;;;7.80;;
52764;SDS011;38650;44.536;18.664;2023-12-07T03:22:06;13.95;;;9.35;;
52764;SDS011;38650;44.536;18.664;2023-12-07T03:24:33;10.43;;;8.50;;
52764;SDS011;38650;44.536;18.664;2023-12-07T03:27:00;12.63;;;9.85;;
52764;SDS011;38650;44.536;18.664;2023-12-07T03:29:25;11.80;;;9.25;;
52764;SDS011;38650;44.536;18.664;2023-12-07T03:31:51;9.68;;;7.70;;
52764;SDS011;38650;44.536;18.664;2023-12-07T03:34:17;10.60;;;8.93;;
52764;SDS011;38650;44.536;18.664;2023-12-07T03:36:46;8.85;;;6.78;;
52764;SDS011;38650;44.536;18.664;2023-12-07T03:39:16;8.93;;;7.13;;
52764;SDS011;38650;44.536;18.664;2023-12-07T03:41:47;8.07;;;6.53;;
52764;SDS011;38650;44.536;18.664;2023-12-07T03:44:14;7.68;;;5.82;;
52764;SDS011;38650;44.536;18.664;2023-12-07T03:46:39;6.22;;;5.55;;
52764;SDS011;38650;44.536;18.664;2023-12-07T03:49:05;6.93;;;5.43;;
52764;SDS011;38650;44.536;18.664;2023-12-07T03:51:31;6.15;;;5.28;;
52764;SDS011;38650;44.536;18.664;2023-12-07T03:53:57;6.05;;;5.05;;
52764;SDS011;38650;44.536;18.664;2023-12-07T03:56:32;5.70;;;4.70;;
52764;SDS011;38650;44.536;18.664;2023-12-07T03:58:58;6.25;;;5.30;;
52764;SDS011;38650;44.536;18.664;2023-12-07T04:01:24;6.22;;;5.07;;
52764;SDS011;38650;44.536;18.664;2023-12-07T04:03:52;5.10;;;4.35;;
52764;SDS011;38650;44.536;18.664;2023-12-07T04:06:18;4.38;;;3.97;;
52764;SDS011;38650;44.536;18.664;2023-12-07T04:08:45;5.00;;;4.28;;
52764;SDS011;38650;44.536;18.664;2023-12-07T04:11:11;5.50;;;4.68;;
52764;SDS011;38650;44.536;18.664;2023-12-07T04:13:40;4.40;;;3.95;;
52764;SDS011;38650;44.536;18.664;2023-12-07T04:16:07;4.00;;;3.60;;
52764;SDS011;38650;44.536;18.664;2023-12-07T04:18:34;4.28;;;3.88;;
52764;SDS011;38650;44.536;18.664;2023-12-07T04:20:59;4.18;;;3.67;;
52764;SDS011;38650;44.536;18.664;2023-12-07T04:23:25;6.20;;;5.15;;
52764;SDS011;38650;44.536;18.664;2023-12-07T04:25:51;4.25;;;3.85;;
52764;SDS011;38650;44.536;18.664;2023-12-07T04:28:16;4.60;;;3.90;;
52764;SDS011;38650;44.536;18.664;2023-12-07T04:30:43;3.63;;;3.20;;
52764;SDS011;38650;44.536;18.664;2023-12-07T04:33:08;4.55;;;4.15;;
52764;SDS011;38650;44.536;18.664;2023-12-07T04:35:34;4.90;;;4.15;;
52764;SDS011;38650;44.536;18.664;2023-12-07T04:38:00;4.05;;;3.65;;
52764;SDS011;38650;44.536;18.664;2023-12-07T04:40:26;4.78;;;4.28;;
52764;SDS011;38650;44.536;18.664;2023-12-07T04:42:52;5.30;;;4.50;;
52764;SDS011;38650;44.536;18.664;2023-12-07T04:45:18;7.45;;;5.50;;
52764;SDS011;38650;44.536;18.664;2023-12-07T04:47:45;9.10;;;6.70;;
52764;SDS011;38650;44.536;18.664;2023-12-07T04:50:10;9.32;;;7.53;;
52764;SDS011;38650;44.536;18.664;2023-12-07T04:52:36;7.57;;;6.32;;
52764;SDS011;38650;44.536;18.664;2023-12-07T04:55:02;16.00;;;11.27;;
52764;SDS011;38650;44.536;18.664;2023-12-07T04:57:28;8.90;;;7.25;;
52764;SDS011;38650;44.536;18.664;2023-12-07T04:59:54;9.27;;;7.30;;
52764;SDS011;38650;44.536;18.664;2023-12-07T05:02:19;10.25;;;8.43;;
52764;SDS011;38650;44.536;18.664;2023-12-07T05:04:45;9.70;;;7.95;;
52764;SDS011;38650;44.536;18.664;2023-12-07T05:07:11;32.15;;;24.70;;
52764;SDS011;38650;44.536;18.664;2023-12-07T05:09:38;22.80;;;18.77;;
52764;SDS011;38650;44.536;18.664;2023-12-07T05:12:05;16.35;;;14.38;;
52764;SDS011;38650;44.536;18.664;2023-12-07T05:14:31;17.05;;;13.00;;
52764;SDS011;38650;44.536;18.664;2023-12-07T05:16:58;15.52;;;11.35;;
52764;SDS011;38650;44.536;18.664;2023-12-07T05:19:24;11.30;;;10.10;;
52764;SDS011;38650;44.536;18.664;2023-12-07T05:21:50;10.18;;;9.07;;
52764;SDS011;38650;44.536;18.664;2023-12-07T05:24:16;9.75;;;6.78;;
52764;SDS011;38650;44.536;18.664;2023-12-07T05:26:42;6.82;;;5.85;;
52764;SDS011;38650;44.536;18.664;2023-12-07T05:29:11;6.80;;;6.07;;
52764;SDS011;38650;44.536;18.664;2023-12-07T05:31:37;5.97;;;5.38;;
52764;SDS011;38650;44.536;18.664;2023-12-07T05:34:03;6.18;;;5.20;;
52764;SDS011;38650;44.536;18.664;2023-12-07T05:36:30;6.28;;;5.38;;
52764;SDS011;38650;44.536;18.664;2023-12-07T05:38:56;5.80;;;4.82;;
52764;SDS011;38650;44.536;18.664;2023-12-07T05:41:21;4.78;;;4.28;;
52764;SDS011;38650;44.536;18.664;2023-12-07T05:43:47;4.38;;;3.70;;
52764;SDS011;38650;44.536;18.664;2023-12-07T05:46:13;4.22;;;3.40;;
52764;SDS011;38650;44.536;18.664;2023-12-07T05:48:39;4.00;;;3.60;;
52764;SDS011;38650;44.536;18.664;2023-12-07T05:51:05;4.63;;;3.85;;
52764;SDS011;38650;44.536;18.664;2023-12-07T05:53:36;4.57;;;4.00;;
52764;SDS011;38650;44.536;18.664;2023-12-07T05:56:01;3.33;;;3.03;;
52764;SDS011;38650;44.536;18.664;2023-12-07T05:58:27;3.38;;;3.08;;
52764;SDS011;38650;44.536;18.664;2023-12-07T06:00:53;12.93;;;9.93;;
52764;SDS011;38650;44.536;18.664;2023-12-07T06:03:19;22.23;;;18.35;;
52764;SDS011;38650;44.536;18.664;2023-12-07T06:05:44;32.10;;;24.75;;
52764;SDS011;38650;44.536;18.664;2023-12-07T06:08:11;28.35;;;23.80;;
52764;SDS011;38650;44.536;18.664;2023-12-07T06:10:37;24.08;;;20.10;;
52764;SDS011;38650;44.536;18.664;2023-12-07T06:13:03;19.20;;;15.90;;
52764;SDS011;38650;44.536;18.664;2023-12-07T06:15:29;23.40;;;18.58;;
52764;SDS011;38650;44.536;18.664;2023-12-07T06:17:55;18.42;;;14.98;;
52764;SDS011;38650;44.536;18.664;2023-12-07T06:20:22;18.00;;;14.95;;
52764;SDS011;38650;44.536;18.664;2023-12-07T06:22:48;38.88;;;35.03;;
52764;SDS011;38650;44.536;18.664;2023-12-07T06:25:13;29.23;;;26.48;;
52764;SDS011;38650;44.536;18.664;2023-12-07T06:27:40;29.45;;;26.48;;
52764;SDS011;38650;44.536;18.664;2023-12-07T06:30:06;25.17;;;22.63;;
52764;SDS011;38650;44.536;18.664;2023-12-07T06:32:32;21.42;;;19.33;;
52764;SDS011;38650;44.536;18.664;2023-12-07T06:34:59;17.50;;;15.68;;
52764;SDS011;38650;44.536;18.664;2023-12-07T06:37:25;21.48;;;19.10;;
52764;SDS011;38650;44.536;18.664;2023-12-07T06:39:51;29.08;;;25.85;;
52764;SDS011;38650;44.536;18.664;2023-12-07T06:42:17;26.17;;;22.80;;
52764;SDS011;38650;44.536;18.664;2023-12-07T06:44:43;24.83;;;20.48;;
52764;SDS011;38650;44.536;18.664;2023-12-07T06:47:11;30.83;;;25.77;;
52764;SDS011;38650;44.536;18.664;2023-12-07T06:49:37;32.55;;;25.10;;
52764;SDS011;38650;44.536;18.664;2023-12-07T06:52:03;35.13;;;28.17;;
52764;SDS011;38650;44.536;18.664;2023-12-07T06:54:29;24.75;;;20.85;;
52764;SDS011;38650;44.536;18.664;2023-12-07T06:56:54;26.25;;;21.63;;
52764;SDS011;38650;44.536;18.664;2023-12-07T06:59:20;22.70;;;18.77;;
52764;SDS011;38650;44.536;18.664;2023-12-07T07:01:46;24.83;;;19.10;;
52764;SDS011;38650;44.536;18.664;2023-12-07T07:04:12;18.95;;;15.63;;
52764;SDS011;38650;44.536;18.664;2023-12-07T07:06:38;24.73;;;19.75;;
52764;SDS011;38650;44.536;18.664;2023-12-07T07:09:05;26.92;;;21.40;;
52764;SDS011;38650;44.536;18.664;2023-12-07T07:11:31;19.77;;;16.35;;
52764;SDS011;38650;44.536;18.664;2023-12-07T07:13:56;20.95;;;16.60;;
52764;SDS011;38650;44.536;18.664;2023-12-07T07:16:22;18.17;;;14.68;;
52764;SDS011;38650;44.536;18.664;2023-12-07T07:18:48;17.27;;;14.23;;
52764;SDS011;38650;44.536;18.664;2023-12-07T07:21:13;18.80;;;15.73;;
52764;SDS011;38650;44.536;18.664;2023-12-07T07:23:39;15.00;;;13.50;;
52764;SDS011;38650;44.536;18.664;2023-12-07T07:26:05;17.40;;;14.82;;
52764;SDS011;38650;44.536;18.664;2023-12-07T07:28:31;14.80;;;12.80;;
52764;SDS011;38650;44.536;18.664;2023-12-07T07:30:57;16.38;;;13.38;;
52764;SDS011;38650;44.536;18.664;2023-12-07T07:33:23;18.63;;;14.50;;
52764;SDS011;38650;44.536;18.664;2023-12-07T07:35:48;15.55;;;12.65;;
52764;SDS011;38650;44.536;18.664;2023-12-07T07:38:14;13.20;;;11.80;;
52764;SDS011;38650;44.536;18.664;2023-12-07T07:40:40;17.55;;;14.77;;
52764;SDS011;38650;44.536;18.664;2023-12-07T07:43:06;14.00;;;12.25;;
52764;SDS011;38650;44.536;18.664;2023-12-07T07:45:32;16.92;;;14.10;;
52764;SDS011;38650;44.536;18.664;2023-12-07T07:47:58;22.17;;;17.23;;
52764;SDS011;38650;44.536;18.664;2023-12-07T07:50:24;26.00;;;19.45;;
52764;SDS011;38650;44.536;18.664;2023-12-07T07:52:49;24.63;;;18.80;;
52764;SDS011;38650;44.536;18.664;2023-12-07T07:55:15;22.48;;;18.98;;
52764;SDS011;38650;44.536;18.664;2023-12-07T07:57:43;19.98;;;16.58;;
52764;SDS011;38650;44.536;18.664;2023-12-07T08:00:08;20.30;;;17.17;;
52764;SDS011;38650;44.536;18.664;2023-12-07T08:02:35;18.50;;;15.30;;
52764;SDS011;38650;44.536;18.664;2023-12-07T08:05:03;19.25;;;16.40;;
52764;SDS011;38650;44.536;18.664;2023-12-07T08:07:29;18.13;;;14.95;;
52764;SDS011;38650;44.536;18.664;2023-12-07T08:09:57;20.67;;;15.38;;
52764;SDS011;38650;44.536;18.664;2023-12-07T08:12:23;24.25;;;18.15;;
52764;SDS011;38650;44.536;18.664;2023-12-07T08:14:49;18.35;;;15.25;;
52764;SDS011;38650;44.536;18.664;2023-12-07T08:17:15;17.80;;;13.85;;
52764;SDS011;38650;44.536;18.664;2023-12-07T08:19:41;16.55;;;13.55;;
52764;SDS011;38650;44.536;18.664;2023-12-07T08:22:07;19.88;;;15.43;;
52764;SDS011;38650;44.536;18.664;2023-12-07T08:24:33;26.67;;;16.48;;
52764;SDS011;38650;44.536;18.664;2023-12-07T08:26:59;19.05;;;14.70;;
52764;SDS011;38650;44.536;18.664;2023-12-07T08:29:25;31.77;;;22.92;;
52764;SDS011;38650;44.536;18.664;2023-12-07T08:31:51;41.47;;;30.30;;
52764;SDS011;38650;44.536;18.664;2023-12-07T08:34:16;39.25;;;28.52;;
52764;SDS011;38650;44.536;18.664;2023-12-07T08:36:42;38.97;;;27.98;;
52764;SDS011;38650;44.536;18.664;2023-12-07T08:39:08;34.03;;;26.20;;
52764;SDS011;38650;44.536;18.664;2023-12-07T08:41:35;42.08;;;29.40;;
52764;SDS011;38650;44.536;18.664;2023-12-07T08:44:01;44.63;;;31.42;;
52764;SDS011;38650;44.536;18.664;2023-12-07T08:46:27;40.22;;;27.70;;
52764;SDS011;38650;44.536;18.664;2023-12-07T08:48:53;38.80;;;28.10;;
52764;SDS011;38650;44.536;18.664;2023-12-07T08:51:19;41.58;;;28.33;;
52764;SDS011;38650;44.536;18.664;2023-12-07T08:53:45;38.72;;;27.00;;
52764;SDS011;38650;44.536;18.664;2023-12-07T08:56:11;36.20;;;26.65;;
52764;SDS011;38650;44.536;18.664;2023-12-07T08:58:38;33.20;;;23.60;;
52764;SDS011;38650;44.536;18.664;2023-12-07T09:01:04;32.92;;;22.60;;
52764;SDS011;38650;44.536;18.664;2023-12-07T09:03:33;27.30;;;18.70;;
52764;SDS011;38650;44.536;18.664;2023-12-07T09:05:59;21.48;;;15.80;;
52764;SDS011;38650;44.536;18.664;2023-12-07T09:08:26;21.55;;;16.50;;
52764;SDS011;38650;44.536;18.664;2023-12-07T09:10:51;22.52;;;15.52;;
52764;SDS011;38650;44.536;18.664;2023-12-07T09:13:17;17.13;;;13.10;;
52764;SDS011;38650;44.536;18.664;2023-12-07T09:15:45;20.30;;;14.77;;
52764;SDS011;38650;44.536;18.664;2023-12-07T09:18:10;16.63;;;13.52;;
52764;SDS011;38650;44.536;18.664;2023-12-07T09:20:37;16.75;;;12.85;;
52764;SDS011;38650;44.536;18.664;2023-12-07T09:23:11;23.92;;;17.83;;
52764;SDS011;38650;44.536;18.664;2023-12-07T09:25:38;22.83;;;17.15;;
52764;SDS011;38650;44.536;18.664;2023-12-07T09:28:04;22.77;;;17.38;;
52764;SDS011;38650;44.536;18.664;2023-12-07T09:30:30;23.13;;;16.92;;
52764;SDS011;38650;44.536;18.664;2023-12-07T09:32:58;18.60;;;15.07;;
52764;SDS011;38650;44.536;18.664;2023-12-07T09:35:25;21.45;;;15.85;;
52764;SDS011;38650;44.536;18.664;2023-12-07T09:37:51;19.65;;;15.98;;
52764;SDS011;38650;44.536;18.664;2023-12-07T09:40:21;24.30;;;18.33;;
52764;SDS011;38650;44.536;18.664;2023-12-07T09:42:48;19.30;;;15.02;;
52764;SDS011;38650;44.536;18.664;2023-12-07T09:45:21;23.67;;;17.63;;
52764;SDS011;38650;44.536;18.664;2023-12-07T09:47:51;21.83;;;14.93;;
52764;SDS011;38650;44.536;18.664;2023-12-07T09:50:19;19.80;;;15.23;;
52764;SDS011;38650;44.536;18.664;2023-12-07T09:52:50;19.50;;;14.13;;
52764;SDS011;38650;44.536;18.664;2023-12-07T09:55:17;15.20;;;12.15;;
52764;SDS011;38650;44.536;18.664;2023-12-07T09:57:43;18.02;;;13.48;;
52764;SDS011;38650;44.536;18.664;2023-12-07T10:00:17;15.60;;;12.50;;
52764;SDS011;38650;44.536;18.664;2023-12-07T10:02:50;14.65;;;11.88;;
52764;SDS011;38650;44.536;18.664;2023-12-07T10:05:16;13.38;;;11.57;;
52764;SDS011;38650;44.536;18.664;2023-12-07T10:07:43;18.02;;;13.80;;
52764;SDS011;38650;44.536;18.664;2023-12-07T10:10:11;17.25;;;13.57;;
52764;SDS011;38650;44.536;18.664;2023-12-07T10:12:59;12.32;;;11.02;;
52764;SDS011;38650;44.536;18.664;2023-12-07T10:15:25;13.75;;;10.98;;
52764;SDS011;38650;44.536;18.664;2023-12-07T10:17:51;19.75;;;14.82;;
52764;SDS011;38650;44.536;18.664;2023-12-07T10:20:18;25.70;;;19.73;;
52764;SDS011;38650;44.536;18.664;2023-12-07T10:23:01;27.08;;;19.95;;
52764;SDS011;38650;44.536;18.664;2023-12-07T10:25:36;24.65;;;19.73;;
52764;SDS011;38650;44.536;18.664;2023-12-07T10:28:03;19.80;;;16.50;;
52764;SDS011;38650;44.536;18.664;2023-12-07T10:30:40;20.35;;;17.25;;
52764;SDS011;38650;44.536;18.664;2023-12-07T10:33:10;28.75;;;20.65;;
52764;SDS011;38650;44.536;18.664;2023-12-07T10:35:44;21.33;;;17.58;;
52764;SDS011;38650;44.536;18.664;2023-12-07T10:38:12;21.73;;;17.45;;
52764;SDS011;38650;44.536;18.664;2023-12-07T10:40:38;22.95;;;17.30;;
52764;SDS011;38650;44.536;18.664;2023-12-07T10:43:07;15.18;;;13.55;;
52764;SDS011;38650;44.536;18.664;2023-12-07T10:45:34;18.95;;;15.65;;
52764;SDS011;38650;44.536;18.664;2023-12-07T10:48:05;20.38;;;17.77;;
52764;SDS011;38650;44.536;18.664;2023-12-07T10:50:36;19.50;;;14.73;;
52764;SDS011;38650;44.536;18.664;2023-12-07T10:53:09;18.48;;;13.25;;
52764;SDS011;38650;44.536;18.664;2023-12-07T10:55:55;17.15;;;12.90;;
52764;SDS011;38650;44.536;18.664;2023-12-07T10:58:24;14.95;;;10.45;;
52764;SDS011;38650;44.536;18.664;2023-12-07T11:00:54;12.40;;;8.98;;
52764;SDS011;38650;44.536;18.664;2023-12-07T11:03:22;11.15;;;8.40;;
52764;SDS011;38650;44.536;18.664;2023-12-07T11:05:49;9.50;;;7.47;;
52764;SDS011;38650;44.536;18.664;2023-12-07T11:14:04;9.10;;;6.88;;
52764;SDS011;38650;44.536;18.664;2023-12-07T11:16:35;10.88;;;7.13;;
52764;SDS011;38650;44.536;18.664;2023-12-07T11:19:02;8.85;;;7.28;;
52764;SDS011;38650;44.536;18.664;2023-12-07T11:21:29;7.78;;;6.32;;
52764;SDS011;38650;44.536;18.664;2023-12-07T11:23:55;10.05;;;6.40;;
52764;SDS011;38650;44.536;18.664;2023-12-07T11:26:26;8.00;;;5.90;;
52764;SDS011;38650;44.536;18.664;2023-12-07T11:28:53;7.60;;;5.70;;
52764;SDS011;38650;44.536;18.664;2023-12-07T11:31:20;6.43;;;5.38;;
52764;SDS011;38650;44.536;18.664;2023-12-07T11:33:46;10.43;;;6.72;;
52764;SDS011;38650;44.536;18.664;2023-12-07T11:36:13;6.82;;;5.18;;
52764;SDS011;38650;44.536;18.664;2023-12-07T11:39:15;8.68;;;6.38;;
52764;SDS011;38650;44.536;18.664;2023-12-07T11:41:28;8.57;;;5.80;;
52764;SDS011;38650;44.536;18.664;2023-12-07T11:43:57;7.72;;;5.63;;
52764;SDS011;38650;44.536;18.664;2023-12-07T11:46:23;8.30;;;6.18;;
52764;SDS011;38650;44.536;18.664;2023-12-07T11:48:49;7.30;;;5.40;;
52764;SDS011;38650;44.536;18.664;2023-12-07T11:51:15;8.13;;;5.95;;
52764;SDS011;38650;44.536;18.664;2023-12-07T11:53:42;6.93;;;5.38;;
52764;SDS011;38650;44.536;18.664;2023-12-07T11:56:09;9.20;;;5.80;;
52764;SDS011;38650;44.536;18.664;2023-12-07T11:58:36;6.43;;;5.00;;
52764;SDS011;38650;44.536;18.664;2023-12-07T12:01:03;6.85;;;4.50;;
52764;SDS011;38650;44.536;18.664;2023-12-07T12:03:30;5.50;;;4.50;;
52764;SDS011;38650;44.536;18.664;2023-12-07T12:06:03;6.40;;;4.38;;
52764;SDS011;38650;44.536;18.664;2023-12-07T12:08:30;4.80;;;4.28;;
52764;SDS011;38650;44.536;18.664;2023-12-07T12:10:57;5.43;;;4.05;;
52764;SDS011;38650;44.536;18.664;2023-12-07T12:13:29;3.45;;;3.15;;
52764;SDS011;38650;44.536;18.664;2023-12-07T12:15:58;2.65;;;2.28;;
52764;SDS011;38650;44.536;18.664;2023-12-07T12:18:25;2.83;;;2.63;;
52764;SDS011;38650;44.536;18.664;2023-12-07T12:20:52;1.95;;;1.83;;
52764;SDS011;38650;44.536;18.664;2023-12-07T12:23:18;2.10;;;1.90;;
52764;SDS011;38650;44.536;18.664;2023-12-07T12:25:45;3.70;;;3.30;;
52764;SDS011;38650;44.536;18.664;2023-12-07T12:28:11;3.28;;;2.97;;
52764;SDS011;38650;44.536;18.664;2023-12-07T12:30:46;2.60;;;2.40;;
52764;SDS011;38650;44.536;18.664;2023-12-07T12:33:12;4.05;;;3.60;;
52764;SDS011;38650;44.536;18.664;2023-12-07T12:35:38;4.45;;;4.00;;
52764;SDS011;38650;44.536;18.664;2023-12-07T12:38:09;4.05;;;3.60;;
52764;SDS011;38650;44.536;18.664;2023-12-07T12:40:38;3.30;;;3.00;;
52764;SDS011;38650;44.536;18.664;2023-12-07T12:43:06;2.83;;;2.53;;
52764;SDS011;38650;44.536;18.664;2023-12-07T12:45:32;2.95;;;2.65;;
52764;SDS011;38650;44.536;18.664;2023-12-07T12:47:58;4.53;;;3.70;;
52764;SDS011;38650;44.536;18.664;2023-12-07T12:50:35;4.75;;;4.05;;
52764;SDS011;38650;44.536;18.664;2023-12-07T12:53:03;3.92;;;3.53;;
52764;SDS011;38650;44.536;18.664;2023-12-07T12:55:40;5.57;;;4.47;;
52764;SDS011;38650;44.536;18.664;2023-12-07T12:58:07;4.63;;;4.13;;
52764;SDS011;38650;44.536;18.664;2023-12-07T13:00:34;7.65;;;6.38;;
52764;SDS011;38650;44.536;18.664;2023-12-07T13:03:04;4.60;;;4.18;;
52764;SDS011;38650;44.536;18.664;2023-12-07T13:05:31;4.97;;;4.45;;
52764;SDS011;38650;44.536;18.664;2023-12-07T13:07:58;5.13;;;4.40;;
52764;SDS011;38650;44.536;18.664;2023-12-07T13:10:27;4.72;;;4.30;;
52764;SDS011;38650;44.536;18.664;2023-12-07T13:12:53;5.07;;;4.50;;
52764;SDS011;38650;44.536;18.664;2023-12-07T13:15:19;4.75;;;4.13;;
52764;SDS011;38650;44.536;18.664;2023-12-07T13:17:44;5.32;;;4.80;;
52764;SDS011;38650;44.536;18.664;2023-12-07T13:20:10;4.28;;;3.88;;
52764;SDS011;38650;44.536;18.664;2023-12-07T13:22:40;13.32;;;10.20;;
52764;SDS011;38650;44.536;18.664;2023-12-07T13:25:08;7.47;;;6.60;;
52764;SDS011;38650;44.536;18.664;2023-12-07T13:27:34;7.70;;;6.35;;
52764;SDS011;38650;44.536;18.664;2023-12-07T13:30:01;8.10;;;7.10;;
52764;SDS011;38650;44.536;18.664;2023-12-07T13:32:32;6.50;;;5.90;;
52764;SDS011;38650;44.536;18.664;2023-12-07T13:34:58;6.97;;;6.28;;
52764;SDS011;38650;44.536;18.664;2023-12-07T13:37:24;6.32;;;5.50;;
52764;SDS011;38650;44.536;18.664;2023-12-07T13:39:50;7.93;;;6.30;;
52764;SDS011;38650;44.536;18.664;2023-12-07T13:42:23;5.82;;;5.20;;
52764;SDS011;38650;44.536;18.664;2023-12-07T13:44:52;8.13;;;6.07;;
52764;SDS011;38650;44.536;18.664;2023-12-07T13:47:22;7.13;;;6.43;;
52764;SDS011;38650;44.536;18.664;2023-12-07T13:50:12;6.15;;;5.30;;
52764;SDS011;38650;44.536;18.664;2023-12-07T13:52:38;4.55;;;4.15;;
52764;SDS011;38650;44.536;18.664;2023-12-07T13:55:04;5.13;;;4.63;;
52764;SDS011;38650;44.536;18.664;2023-12-07T13:57:30;7.35;;;6.65;;
52764;SDS011;38650;44.536;18.664;2023-12-07T13:59:56;11.05;;;9.13;;
52764;SDS011;38650;44.536;18.664;2023-12-07T14:02:22;13.80;;;11.73;;
52764;SDS011;38650;44.536;18.664;2023-12-07T14:04:48;22.50;;;15.55;;
52764;SDS011;38650;44.536;18.664;2023-12-07T14:07:15;29.42;;;23.20;;
52764;SDS011;38650;44.536;18.664;2023-12-07T14:09:43;31.08;;;24.63;;
52764;SDS011;38650;44.536;18.664;2023-12-07T14:12:11;23.08;;;19.73;;
52764;SDS011;38650;44.536;18.664;2023-12-07T14:14:41;22.15;;;19.73;;
52764;SDS011;38650;44.536;18.664;2023-12-07T14:17:08;23.65;;;20.20;;
52764;SDS011;38650;44.536;18.664;2023-12-07T14:19:34;24.48;;;20.75;;
52764;SDS011;38650;44.536;18.664;2023-12-07T14:22:00;20.48;;;17.42;;
52764;SDS011;38650;44.536;18.664;2023-12-07T14:24:26;28.70;;;22.95;;
52764;SDS011;38650;44.536;18.664;2023-12-07T14:26:52;20.55;;;16.50;;